sensor_id;sensor_type;location;lat;lon;timestamp;temperature;humidity
6178;DHT22;3122;48.208;11.174;2023-11-18T00:04:55;3.80;1.00
6178;DHT22;3122;48.208;11.174;2023-11-18T00:09:55;3.90;1.00
6178;DHT22;3122;48.208;11.174;2023-11-18T00:14:56;3.80;1.00
6178;DHT22;3122;48.208;11.174;2023-11-18T00:19:57;3.80;1.00
6178;DHT22;3122;48.208;11.174;2023-11-18T00:24:58;3.70;1.00
6178;DHT22;3122;48.208;11.174;2023-11-18T00:29:58;3.70;1.00
6178;DHT22;3122;48.208;11.174;2023-11-18T00:34:59;3.80;1.00
6178;DHT22;3122;48.208;11.174;2023-11-18T00:40:00;3.80;1.00
6178;DHT22;3122;48.208;11.174;2023-11-18T00:45:00;3.80;1.00
6178;DHT22;3122;48.208;11.174;2023-11-18T00:50:01;3.80;1.00
6178;DHT22;3122;48.208;11.174;2023-11-18T00:55:03;3.70;1.00
6178;DHT22;3122;48.208;11.174;2023-11-18T01:00:04;3.70;1.00
6178;DHT22;3122;48.208;11.174;2023-11-18T01:05:04;3.70;1.00
6178;DHT22;3122;48.208;11.174;2023-11-18T01:10:05;3.70;1.00
6178;DHT22;3122;48.208;11.174;2023-11-18T01:15:07;3.80;1.00
6178;DHT22;3122;48.208;11.174;2023-11-18T01:20:11;3.60;1.00
6178;DHT22;3122;48.208;11.174;2023-11-18T01:25:13;3.70;1.00
6178;DHT22;3122;48.208;11.174;2023-11-18T01:30:14;3.80;1.00
6178;DHT22;3122;48.208;11.174;2023-11-18T01:35:15;3.80;1.00
6178;DHT22;3122;48.208;11.174;2023-11-18T01:40:17;3.90;1.00
6178;DHT22;3122;48.208;11.174;2023-11-18T01:45:17;3.80;1.00
6178;DHT22;3122;48.208;11.174;2023-11-18T01:50:18;3.80;1.00
6178;DHT22;3122;48.208;11.174;2023-11-18T01:55:19;3.80;1.00
6178;DHT22;3122;48.208;11.174;2023-11-18T02:00:20;3.80;1.00
6178;DHT22;3122;48.208;11.174;2023-11-18T02:05:22;3.80;1.00
6178;DHT22;3122;48.208;11.174;2023-11-18T02:10:22;3.70;1.00
6178;DHT22;3122;48.208;11.174;2023-11-18T02:15:25;3.80;1.00
6178;DHT22;3122;48.208;11.174;2023-11-18T02:20:28;3.80;1.00
6178;DHT22;3122;48.208;11.174;2023-11-18T02:25:29;3.80;1.00
6178;DHT22;3122;48.208;11.174;2023-11-18T02:30:33;3.80;1.00
6178;DHT22;3122;48.208;11.174;2023-11-18T02:35:51;3.80;1.00
6178;DHT22;3122;48.208;11.174;2023-11-18T02:40:53;3.80;1.00
6178;DHT22;3122;48.208;11.174;2023-11-18T02:45:57;3.80;1.00
6178;DHT22;3122;48.208;11.174;2023-11-18T02:50:59;3.80;1.00
6178;DHT22;3122;48.208;11.174;2023-11-18T02:55:59;3.70;1.00
6178;DHT22;3122;48.208;11.174;2023-11-18T03:01:03;3.80;1.00
6178;DHT22;3122;48.208;11.174;2023-11-18T03:06:05;3.80;1.00
6178;DHT22;3122;48.208;11.174;2023-11-18T03:11:06;3.80;1.00
6178;DHT22;3122;48.208;11.174;2023-11-18T03:16:09;3.80;1.00
6178;DHT22;3122;48.208;11.174;2023-11-18T03:21:13;3.80;1.00
6178;DHT22;3122;48.208;11.174;2023-11-18T03:26:14;3.80;1.00
6178;DHT22;3122;48.208;11.174;2023-11-18T03:31:15;3.80;1.00
6178;DHT22;3122;48.208;11.174;2023-11-18T03:36:16;3.80;1.00
6178;DHT22;3122;48.208;11.174;2023-11-18T03:41:18;3.90;1.00
6178;DHT22;3122;48.208;11.174;2023-11-18T03:46:18;3.90;1.00
6178;DHT22;3122;48.208;11.174;2023-11-18T03:51:19;3.80;1.00
6178;DHT22;3122;48.208;11.174;2023-11-18T03:56:19;3.80;1.00
6178;DHT22;3122;48.208;11.174;2023-11-18T04:01:21;3.80;1.00
6178;DHT22;3122;48.208;11.174;2023-11-18T04:06:22;3.90;1.00
6178;DHT22;3122;48.208;11.174;2023-11-18T04:11:24;3.90;1.00
6178;DHT22;3122;48.208;11.174;2023-11-18T04:16:25;3.80;1.00
6178;DHT22;3122;48.208;11.174;2023-11-18T04:21:25;3.80;1.00
6178;DHT22;3122;48.208;11.174;2023-11-18T04:26:26;3.80;1.00
6178;DHT22;3122;48.208;11.174;2023-11-18T04:31:26;3.90;1.00
6178;DHT22;3122;48.208;11.174;2023-11-18T04:36:27;3.90;1.00
6178;DHT22;3122;48.208;11.174;2023-11-18T04:41:27;4.00;1.00
6178;DHT22;3122;48.208;11.174;2023-11-18T04:46:29;4.00;1.00
6178;DHT22;3122;48.208;11.174;2023-11-18T04:51:29;4.00;1.00
6178;DHT22;3122;48.208;11.174;2023-11-18T04:56:30;3.90;1.00
6178;DHT22;3122;48.208;11.174;2023-11-18T05:01:34;3.90;1.00
6178;DHT22;3122;48.208;11.174;2023-11-18T05:06:34;3.90;1.00
6178;DHT22;3122;48.208;11.174;2023-11-18T05:11:35;3.90;1.00
6178;DHT22;3122;48.208;11.174;2023-11-18T05:16:36;3.80;1.00
6178;DHT22;3122;48.208;11.174;2023-11-18T05:21:36;3.90;1.00
6178;DHT22;3122;48.208;11.174;2023-11-18T05:26:37;3.90;1.00
6178;DHT22;3122;48.208;11.174;2023-11-18T05:31:37;3.80;1.00
6178;DHT22;3122;48.208;11.174;2023-11-18T05:36:38;3.90;1.00
6178;DHT22;3122;48.208;11.174;2023-11-18T05:41:41;3.80;1.00
6178;DHT22;3122;48.208;11.174;2023-11-18T05:46:46;3.80;1.00
6178;DHT22;3122;48.208;11.174;2023-11-18T05:51:47;3.80;1.00
6178;DHT22;3122;48.208;11.174;2023-11-18T05:56:47;3.80;1.00
6178;DHT22;3122;48.208;11.174;2023-11-18T06:01:48;3.80;1.00
6178;DHT22;3122;48.208;11.174;2023-11-18T06:06:48;3.80;1.00
6178;DHT22;3122;48.208;11.174;2023-11-18T06:11:49;3.80;1.00
6178;DHT22;3122;48.208;11.174;2023-11-18T06:16:50;3.90;1.00
6178;DHT22;3122;48.208;11.174;2023-11-18T06:21:50;4.00;1.00
6178;DHT22;3122;48.208;11.174;2023-11-18T06:26:51;3.90;1.00
6178;DHT22;3122;48.208;11.174;2023-11-18T06:31:52;3.90;1.00
6178;DHT22;3122;48.208;11.174;2023-11-18T06:36:53;4.00;1.00
6178;DHT22;3122;48.208;11.174;2023-11-18T06:41:54;4.00;1.00
6178;DHT22;3122;48.208;11.174;2023-11-18T06:46:54;4.00;1.00
6178;DHT22;3122;48.208;11.174;2023-11-18T06:51:55;3.90;1.00
6178;DHT22;3122;48.208;11.174;2023-11-18T06:56:56;3.90;1.00
6178;DHT22;3122;48.208;11.174;2023-11-18T07:01:56;4.00;1.00
6178;DHT22;3122;48.208;11.174;2023-11-18T07:06:57;4.00;1.00
6178;DHT22;3122;48.208;11.174;2023-11-18T07:11:57;4.00;1.00
6178;DHT22;3122;48.208;11.174;2023-11-18T07:16:58;4.10;1.00
6178;DHT22;3122;48.208;11.174;2023-11-18T07:21:59;4.20;1.00
6178;DHT22;3122;48.208;11.174;2023-11-18T07:26:59;4.20;1.00
6178;DHT22;3122;48.208;11.174;2023-11-18T07:32:00;4.20;1.00
6178;DHT22;3122;48.208;11.174;2023-11-18T07:37:05;4.30;1.00
6178;DHT22;3122;48.208;11.174;2023-11-18T07:42:08;4.30;1.00
6178;DHT22;3122;48.208;11.174;2023-11-18T07:47:09;4.30;1.00
6178;DHT22;3122;48.208;11.174;2023-11-18T07:52:10;4.40;1.00
6178;DHT22;3122;48.208;11.174;2023-11-18T07:57:10;4.50;1.00
6178;DHT22;3122;48.208;11.174;2023-11-18T08:02:11;4.50;1.00
6178;DHT22;3122;48.208;11.174;2023-11-18T08:07:15;4.50;1.00
6178;DHT22;3122;48.208;11.174;2023-11-18T08:12:15;4.60;1.00
6178;DHT22;3122;48.208;11.174;2023-11-18T08:17:16;4.60;1.00
6178;DHT22;3122;48.208;11.174;2023-11-18T08:22:16;4.60;1.00
6178;DHT22;3122;48.208;11.174;2023-11-18T08:27:19;4.70;1.00
6178;DHT22;3122;48.208;11.174;2023-11-18T08:32:19;4.70;1.00
6178;DHT22;3122;48.208;11.174;2023-11-18T08:37:20;4.80;1.00
6178;DHT22;3122;48.208;11.174;2023-11-18T08:42:21;4.80;1.00
6178;DHT22;3122;48.208;11.174;2023-11-18T08:47:22;4.90;1.00
6178;DHT22;3122;48.208;11.174;2023-11-18T08:52:24;4.90;1.00
6178;DHT22;3122;48.208;11.174;2023-11-18T08:57:26;5.00;1.00
6178;DHT22;3122;48.208;11.174;2023-11-18T09:02:26;5.20;1.00
6178;DHT22;3122;48.208;11.174;2023-11-18T09:07:29;5.10;1.00
6178;DHT22;3122;48.208;11.174;2023-11-18T09:12:30;5.30;1.00
6178;DHT22;3122;48.208;11.174;2023-11-18T09:17:30;5.40;1.00
6178;DHT22;3122;48.208;11.174;2023-11-18T09:22:31;5.50;1.00
6178;DHT22;3122;48.208;11.174;2023-11-18T09:27:33;5.60;1.00
6178;DHT22;3122;48.208;11.174;2023-11-18T09:32:34;5.60;1.00
6178;DHT22;3122;48.208;11.174;2023-11-18T09:37:35;5.80;1.00
6178;DHT22;3122;48.208;11.174;2023-11-18T09:42:35;5.80;1.00
6178;DHT22;3122;48.208;11.174;2023-11-18T09:47:38;5.70;1.00
6178;DHT22;3122;48.208;11.174;2023-11-18T09:52:48;5.90;1.00
6178;DHT22;3122;48.208;11.174;2023-11-18T09:57:57;5.90;1.00
6178;DHT22;3122;48.208;11.174;2023-11-18T10:02:59;5.90;1.00
6178;DHT22;3122;48.208;11.174;2023-11-18T10:08:02;5.90;1.00
6178;DHT22;3122;48.208;11.174;2023-11-18T10:13:06;5.90;1.00
6178;DHT22;3122;48.208;11.174;2023-11-18T10:18:22;5.90;1.00
6178;DHT22;3122;48.208;11.174;2023-11-18T10:23:23;5.80;1.00
6178;DHT22;3122;48.208;11.174;2023-11-18T10:28:30;5.90;1.00
6178;DHT22;3122;48.208;11.174;2023-11-18T10:33:37;6.00;1.00
6178;DHT22;3122;48.208;11.174;2023-11-18T10:38:39;6.10;1.00
6178;DHT22;3122;48.208;11.174;2023-11-18T10:43:43;6.30;1.00
6178;DHT22;3122;48.208;11.174;2023-11-18T10:48:48;6.40;1.00
6178;DHT22;3122;48.208;11.174;2023-11-18T10:53:51;6.40;1.00
6178;DHT22;3122;48.208;11.174;2023-11-18T10:59:04;6.40;1.00
6178;DHT22;3122;48.208;11.174;2023-11-18T11:04:12;6.30;1.00
6178;DHT22;3122;48.208;11.174;2023-11-18T11:09:12;6.30;1.00
6178;DHT22;3122;48.208;11.174;2023-11-18T11:14:21;6.30;1.00
6178;DHT22;3122;48.208;11.174;2023-11-18T11:19:37;6.30;1.00
6178;DHT22;3122;48.208;11.174;2023-11-18T11:24:54;6.40;1.00
6178;DHT22;3122;48.208;11.174;2023-11-18T11:30:02;6.60;1.00
6178;DHT22;3122;48.208;11.174;2023-11-18T11:35:16;6.60;1.00
6178;DHT22;3122;48.208;11.174;2023-11-18T11:40:21;6.70;1.00
6178;DHT22;3122;48.208;11.174;2023-11-18T11:45:25;6.80;1.00
6178;DHT22;3122;48.208;11.174;2023-11-18T11:50:32;6.90;1.00
6178;DHT22;3122;48.208;11.174;2023-11-18T11:55:44;6.70;1.00
6178;DHT22;3122;48.208;11.174;2023-11-18T12:00:47;6.70;1.00
6178;DHT22;3122;48.208;11.174;2023-11-18T12:05:50;6.80;1.00
6178;DHT22;3122;48.208;11.174;2023-11-18T12:10:55;7.00;1.00
6178;DHT22;3122;48.208;11.174;2023-11-18T12:15:56;6.90;1.00
6178;DHT22;3122;48.208;11.174;2023-11-18T12:20:57;6.90;1.00
6178;DHT22;3122;48.208;11.174;2023-11-18T12:26:02;6.90;1.00
6178;DHT22;3122;48.208;11.174;2023-11-18T12:31:39;6.80;1.00
6178;DHT22;3122;48.208;11.174;2023-11-18T12:37:01;7.00;1.00
6178;DHT22;3122;48.208;11.174;2023-11-18T12:42:06;7.00;1.00
6178;DHT22;3122;48.208;11.174;2023-11-18T12:47:08;7.00;1.00
6178;DHT22;3122;48.208;11.174;2023-11-18T12:52:21;6.90;1.00
6178;DHT22;3122;48.208;11.174;2023-11-18T12:57:26;7.00;1.00
6178;DHT22;3122;48.208;11.174;2023-11-18T13:02:31;7.00;1.00
6178;DHT22;3122;48.208;11.174;2023-11-18T13:07:32;6.90;1.00
6178;DHT22;3122;48.208;11.174;2023-11-18T13:12:33;6.80;1.00
6178;DHT22;3122;48.208;11.174;2023-11-18T13:17:34;6.90;1.00
6178;DHT22;3122;48.208;11.174;2023-11-18T13:22:35;6.90;1.00
6178;DHT22;3122;48.208;11.174;2023-11-18T13:27:36;6.80;1.00
6178;DHT22;3122;48.208;11.174;2023-11-18T13:32:36;7.00;1.00
6178;DHT22;3122;48.208;11.174;2023-11-18T13:37:37;7.00;1.00
6178;DHT22;3122;48.208;11.174;2023-11-18T13:42:38;6.80;1.00
6178;DHT22;3122;48.208;11.174;2023-11-18T13:47:40;6.80;1.00
6178;DHT22;3122;48.208;11.174;2023-11-18T13:52:43;6.80;1.00
6178;DHT22;3122;48.208;11.174;2023-11-18T13:57:44;6.90;1.00
6178;DHT22;3122;48.208;11.174;2023-11-18T14:02:46;6.80;1.00
6178;DHT22;3122;48.208;11.174;2023-11-18T14:07:48;6.70;1.00
6178;DHT22;3122;48.208;11.174;2023-11-18T14:13:02;6.60;1.00
6178;DHT22;3122;48.208;11.174;2023-11-18T14:18:04;6.60;1.00
6178;DHT22;3122;48.208;11.174;2023-11-18T14:23:04;6.60;1.00
6178;DHT22;3122;48.208;11.174;2023-11-18T14:28:05;6.50;1.00
6178;DHT22;3122;48.208;11.174;2023-11-18T14:33:08;6.40;1.00
6178;DHT22;3122;48.208;11.174;2023-11-18T14:38:09;6.30;1.00
6178;DHT22;3122;48.208;11.174;2023-11-18T14:43:10;6.20;1.00
6178;DHT22;3122;48.208;11.174;2023-11-18T14:48:11;6.20;1.00
6178;DHT22;3122;48.208;11.174;2023-11-18T14:53:11;6.10;1.00
6178;DHT22;3122;48.208;11.174;2023-11-18T14:58:12;6.10;1.00
6178;DHT22;3122;48.208;11.174;2023-11-18T15:03:13;6.10;1.00
6178;DHT22;3122;48.208;11.174;2023-11-18T15:08:16;6.10;1.00
6178;DHT22;3122;48.208;11.174;2023-11-18T15:13:17;6.10;1.00
6178;DHT22;3122;48.208;11.174;2023-11-18T15:18:18;6.10;1.00
6178;DHT22;3122;48.208;11.174;2023-11-18T15:23:20;6.00;1.00
6178;DHT22;3122;48.208;11.174;2023-11-18T15:28:22;6.00;1.00
6178;DHT22;3122;48.208;11.174;2023-11-18T15:33:22;6.00;1.00
6178;DHT22;3122;48.208;11.174;2023-11-18T15:38:23;5.80;1.00
6178;DHT22;3122;48.208;11.174;2023-11-18T15:43:24;5.80;1.00
6178;DHT22;3122;48.208;11.174;2023-11-18T15:48:25;5.80;1.00
6178;DHT22;3122;48.208;11.174;2023-11-18T15:53:29;5.70;1.00
6178;DHT22;3122;48.208;11.174;2023-11-18T15:58:30;5.80;1.00
6178;DHT22;3122;48.208;11.174;2023-11-18T16:03:30;5.70;1.00
6178;DHT22;3122;48.208;11.174;2023-11-18T16:08:31;5.70;1.00
6178;DHT22;3122;48.208;11.174;2023-11-18T16:13:31;5.70;1.00
6178;DHT22;3122;48.208;11.174;2023-11-18T16:18:34;5.70;1.00
6178;DHT22;3122;48.208;11.174;2023-11-18T16:23:35;5.70;1.00
6178;DHT22;3122;48.208;11.174;2023-11-18T16:28:35;5.70;1.00
6178;DHT22;3122;48.208;11.174;2023-11-18T16:33:36;5.70;1.00
6178;DHT22;3122;48.208;11.174;2023-11-18T16:38:37;5.60;1.00
6178;DHT22;3122;48.208;11.174;2023-11-18T16:43:37;5.60;1.00
6178;DHT22;3122;48.208;11.174;2023-11-18T16:48:38;5.60;1.00
6178;DHT22;3122;48.208;11.174;2023-11-18T16:53:40;5.60;1.00
6178;DHT22;3122;48.208;11.174;2023-11-18T16:58:40;5.70;1.00
6178;DHT22;3122;48.208;11.174;2023-11-18T17:03:41;5.60;1.00
6178;DHT22;3122;48.208;11.174;2023-11-18T17:08:41;5.60;1.00
6178;DHT22;3122;48.208;11.174;2023-11-18T17:13:42;5.50;1.00
6178;DHT22;3122;48.208;11.174;2023-11-18T17:18:42;5.50;1.00
6178;DHT22;3122;48.208;11.174;2023-11-18T17:23:43;5.50;1.00
6178;DHT22;3122;48.208;11.174;2023-11-18T17:28:44;5.50;1.00
6178;DHT22;3122;48.208;11.174;2023-11-18T17:33:45;5.50;1.00
6178;DHT22;3122;48.208;11.174;2023-11-18T17:38:46;5.50;1.00
6178;DHT22;3122;48.208;11.174;2023-11-18T17:43:48;5.60;1.00
6178;DHT22;3122;48.208;11.174;2023-11-18T17:48:48;5.50;1.00
6178;DHT22;3122;48.208;11.174;2023-11-18T17:53:49;5.50;1.00
6178;DHT22;3122;48.208;11.174;2023-11-18T17:58:50;5.50;1.00
6178;DHT22;3122;48.208;11.174;2023-11-18T18:03:51;5.50;1.00
6178;DHT22;3122;48.208;11.174;2023-11-18T18:08:52;5.50;1.00
6178;DHT22;3122;48.208;11.174;2023-11-18T18:13:52;5.40;1.00
6178;DHT22;3122;48.208;11.174;2023-11-18T18:18:53;5.40;1.00
6178;DHT22;3122;48.208;11.174;2023-11-18T18:23:53;5.40;1.00
6178;DHT22;3122;48.208;11.174;2023-11-18T18:28:56;5.40;1.00
6178;DHT22;3122;48.208;11.174;2023-11-18T18:33:57;5.40;1.00
6178;DHT22;3122;48.208;11.174;2023-11-18T18:38:57;5.40;1.00
6178;DHT22;3122;48.208;11.174;2023-11-18T18:43:58;5.40;1.00
6178;DHT22;3122;48.208;11.174;2023-11-18T18:48:59;5.40;1.00
6178;DHT22;3122;48.208;11.174;2023-11-18T18:53:59;5.40;1.00
6178;DHT22;3122;48.208;11.174;2023-11-18T18:59:00;5.50;1.00
6178;DHT22;3122;48.208;11.174;2023-11-18T19:04:01;5.60;1.00
6178;DHT22;3122;48.208;11.174;2023-11-18T19:09:02;5.40;1.00
6178;DHT22;3122;48.208;11.174;2023-11-18T19:14:03;5.40;1.00
6178;DHT22;3122;48.208;11.174;2023-11-18T19:19:04;5.40;1.00
6178;DHT22;3122;48.208;11.174;2023-11-18T19:24:05;5.40;1.00
6178;DHT22;3122;48.208;11.174;2023-11-18T19:29:08;5.40;1.00
6178;DHT22;3122;48.208;11.174;2023-11-18T19:34:09;5.40;1.00
6178;DHT22;3122;48.208;11.174;2023-11-18T19:39:10;5.30;1.00
6178;DHT22;3122;48.208;11.174;2023-11-18T19:44:11;5.40;1.00
6178;DHT22;3122;48.208;11.174;2023-11-18T19:49:12;5.30;1.00
6178;DHT22;3122;48.208;11.174;2023-11-18T19:54:12;5.30;1.00
6178;DHT22;3122;48.208;11.174;2023-11-18T19:59:13;5.20;1.00
6178;DHT22;3122;48.208;11.174;2023-11-18T20:04:13;5.10;1.00
6178;DHT22;3122;48.208;11.174;2023-11-18T20:09:14;5.10;1.00
6178;DHT22;3122;48.208;11.174;2023-11-18T20:14:16;5.00;1.00
6178;DHT22;3122;48.208;11.174;2023-11-18T20:19:16;5.00;1.00
6178;DHT22;3122;48.208;11.174;2023-11-18T20:24:17;5.00;1.00
6178;DHT22;3122;48.208;11.174;2023-11-18T20:29:18;4.90;1.00
6178;DHT22;3122;48.208;11.174;2023-11-18T20:34:18;4.90;1.00
6178;DHT22;3122;48.208;11.174;2023-11-18T20:39:19;4.90;1.00
6178;DHT22;3122;48.208;11.174;2023-11-18T20:44:19;4.90;1.00
6178;DHT22;3122;48.208;11.174;2023-11-18T20:49:20;4.90;1.00
6178;DHT22;3122;48.208;11.174;2023-11-18T20:54:20;4.90;1.00
6178;DHT22;3122;48.208;11.174;2023-11-18T20:59:22;4.80;1.00
6178;DHT22;3122;48.208;11.174;2023-11-18T21:04:23;4.80;1.00
6178;DHT22;3122;48.208;11.174;2023-11-18T21:09:24;4.80;1.00
6178;DHT22;3122;48.208;11.174;2023-11-18T21:14:25;4.90;1.00
6178;DHT22;3122;48.208;11.174;2023-11-18T21:19:26;4.80;1.00
6178;DHT22;3122;48.208;11.174;2023-11-18T21:24:27;4.70;1.00
6178;DHT22;3122;48.208;11.174;2023-11-18T21:29:28;4.70;1.00
6178;DHT22;3122;48.208;11.174;2023-11-18T21:34:28;4.70;1.00
6178;DHT22;3122;48.208;11.174;2023-11-18T21:39:29;4.70;1.00
6178;DHT22;3122;48.208;11.174;2023-11-18T21:44:29;4.80;1.00
6178;DHT22;3122;48.208;11.174;2023-11-18T21:49:30;4.80;1.00
6178;DHT22;3122;48.208;11.174;2023-11-18T21:54:31;4.80;1.00
6178;DHT22;3122;48.208;11.174;2023-11-18T21:59:33;4.80;1.00
6178;DHT22;3122;48.208;11.174;2023-11-18T22:04:34;4.70;1.00
6178;DHT22;3122;48.208;11.174;2023-11-18T22:09:35;4.90;1.00
6178;DHT22;3122;48.208;11.174;2023-11-18T22:14:36;4.80;1.00
6178;DHT22;3122;48.208;11.174;2023-11-18T22:19:37;4.80;1.00
6178;DHT22;3122;48.208;11.174;2023-11-18T22:24:40;5.00;1.00
6178;DHT22;3122;48.208;11.174;2023-11-18T22:29:41;4.90;1.00
6178;DHT22;3122;48.208;11.174;2023-11-18T22:34:41;5.00;1.00
6178;DHT22;3122;48.208;11.174;2023-11-18T22:39:42;4.90;1.00
6178;DHT22;3122;48.208;11.174;2023-11-18T22:44:43;4.90;1.00
6178;DHT22;3122;48.208;11.174;2023-11-18T22:49:45;4.90;1.00
6178;DHT22;3122;48.208;11.174;2023-11-18T22:54:46;4.90;1.00
6178;DHT22;3122;48.208;11.174;2023-11-18T22:59:46;4.90;1.00
6178;DHT22;3122;48.208;11.174;2023-11-18T23:04:47;4.90;1.00
6178;DHT22;3122;48.208;11.174;2023-11-18T23:09:47;4.90;1.00
6178;DHT22;3122;48.208;11.174;2023-11-18T23:14:48;4.90;1.00
6178;DHT22;3122;48.208;11.174;2023-11-18T23:19:52;4.90;1.00
6178;DHT22;3122;48.208;11.174;2023-11-18T23:24:53;5.00;1.00
6178;DHT22;3122;48.208;11.174;2023-11-18T23:29:53;5.00;1.00
6178;DHT22;3122;48.208;11.174;2023-11-18T23:34:54;5.00;1.00
6178;DHT22;3122;48.208;11.174;2023-11-18T23:39:55;5.00;1.00
6178;DHT22;3122;48.208;11.174;2023-11-18T23:44:56;5.10;1.00
6178;DHT22;3122;48.208;11.174;2023-11-18T23:49:57;5.10;1.00
6178;DHT22;3122;48.208;11.174;2023-11-18T23:54:57;5.20;1.00
6178;DHT22;3122;48.208;11.174;2023-11-18T23:59:58;5.30;1.00
